sensor_id;sensor_type;location;lat;lon;timestamp;temperature;humidity
21246;DHT22;10781;50.928;4.440;2023-06-14T00:00:15;22.90;65.30
21246;DHT22;10781;50.928;4.440;2023-06-14T00:02:41;23.00;64.50
21246;DHT22;10781;50.928;4.440;2023-06-14T00:05:07;22.90;65.10
21246;DHT22;10781;50.928;4.440;2023-06-14T00:07:39;22.90;65.90
21246;DHT22;10781;50.928;4.440;2023-06-14T00:10:14;22.90;66.00
21246;DHT22;10781;50.928;4.440;2023-06-14T00:12:40;22.60;67.10
21246;DHT22;10781;50.928;4.440;2023-06-14T00:15:07;22.30;67.50
21246;DHT22;10781;50.928;4.440;2023-06-14T00:17:35;22.40;67.10
21246;DHT22;10781;50.928;4.440;2023-06-14T00:20:03;22.50;67.20
21246;DHT22;10781;50.928;4.440;2023-06-14T00:22:30;22.40;67.40
21246;DHT22;10781;50.928;4.440;2023-06-14T00:24:57;22.40;67.50
21246;DHT22;10781;50.928;4.440;2023-06-14T00:27:22;22.40;67.70
21246;DHT22;10781;50.928;4.440;2023-06-14T00:29:48;22.30;68.30
21246;DHT22;10781;50.928;4.440;2023-06-14T00:32:14;22.20;69.30
21246;DHT22;10781;50.928;4.440;2023-06-14T00:34:40;21.90;68.90
21246;DHT22;10781;50.928;4.440;2023-06-14T00:37:05;21.70;69.40
21246;DHT22;10781;50.928;4.440;2023-06-14T00:39:31;21.40;70.50
21246;DHT22;10781;50.928;4.440;2023-06-14T00:41:57;21.30;71.60
21246;DHT22;10781;50.928;4.440;2023-06-14T00:44:23;21.30;71.50
21246;DHT22;10781;50.928;4.440;2023-06-14T00:46:49;21.30;71.70
21246;DHT22;10781;50.928;4.440;2023-06-14T00:49:15;21.30;72.10
21246;DHT22;10781;50.928;4.440;2023-06-14T00:51:42;21.20;71.80
21246;DHT22;10781;50.928;4.440;2023-06-14T00:54:08;21.20;72.40
21246;DHT22;10781;50.928;4.440;2023-06-14T00:56:36;21.00;73.10
21246;DHT22;10781;50.928;4.440;2023-06-14T00:59:02;21.20;73.30
21246;DHT22;10781;50.928;4.440;2023-06-14T01:01:29;21.30;73.40
21246;DHT22;10781;50.928;4.440;2023-06-14T01:03:58;21.40;73.10
21246;DHT22;10781;50.928;4.440;2023-06-14T01:06:33;21.30;73.60
21246;DHT22;10781;50.928;4.440;2023-06-14T01:09:18;21.40;73.40
21246;DHT22;10781;50.928;4.440;2023-06-14T01:12:07;21.50;73.00
21246;DHT22;10781;50.928;4.440;2023-06-14T01:14:36;21.50;73.00
21246;DHT22;10781;50.928;4.440;2023-06-14T01:17:03;21.70;72.50
21246;DHT22;10781;50.928;4.440;2023-06-14T01:19:30;21.70;73.50
21246;DHT22;10781;50.928;4.440;2023-06-14T01:21:57;21.60;72.70
21246;DHT22;10781;50.928;4.440;2023-06-14T01:24:24;21.50;73.30
21246;DHT22;10781;50.928;4.440;2023-06-14T01:26:53;21.20;73.30
21246;DHT22;10781;50.928;4.440;2023-06-14T01:29:22;20.80;74.30
21246;DHT22;10781;50.928;4.440;2023-06-14T01:31:49;20.70;76.20
21246;DHT22;10781;50.928;4.440;2023-06-14T01:34:15;20.80;75.70
21246;DHT22;10781;50.928;4.440;2023-06-14T01:36:41;20.70;76.50
21246;DHT22;10781;50.928;4.440;2023-06-14T01:39:11;20.80;76.60
21246;DHT22;10781;50.928;4.440;2023-06-14T01:41:39;20.80;76.80
21246;DHT22;10781;50.928;4.440;2023-06-14T01:44:05;21.00;76.70
21246;DHT22;10781;50.928;4.440;2023-06-14T01:46:31;21.00;75.70
21246;DHT22;10781;50.928;4.440;2023-06-14T01:48:56;20.70;76.20
21246;DHT22;10781;50.928;4.440;2023-06-14T01:51:22;20.50;78.30
21246;DHT22;10781;50.928;4.440;2023-06-14T01:53:48;20.30;79.20
21246;DHT22;10781;50.928;4.440;2023-06-14T01:56:14;20.60;79.60
21246;DHT22;10781;50.928;4.440;2023-06-14T01:58:39;20.80;79.20
21246;DHT22;10781;50.928;4.440;2023-06-14T02:01:05;21.00;79.00
21246;DHT22;10781;50.928;4.440;2023-06-14T02:03:32;21.20;78.40
21246;DHT22;10781;50.928;4.440;2023-06-14T02:05:58;21.10;78.00
21246;DHT22;10781;50.928;4.440;2023-06-14T02:08:24;21.00;78.80
21246;DHT22;10781;50.928;4.440;2023-06-14T02:10:50;21.00;78.80
21246;DHT22;10781;50.928;4.440;2023-06-14T02:13:15;20.90;79.70
21246;DHT22;10781;50.928;4.440;2023-06-14T02:15:41;20.70;80.80
21246;DHT22;10781;50.928;4.440;2023-06-14T02:18:09;20.80;81.60
21246;DHT22;10781;50.928;4.440;2023-06-14T02:20:35;20.90;81.50
21246;DHT22;10781;50.928;4.440;2023-06-14T02:23:01;20.80;81.50
21246;DHT22;10781;50.928;4.440;2023-06-14T02:25:27;20.80;82.40
21246;DHT22;10781;50.928;4.440;2023-06-14T02:27:54;20.90;82.40
21246;DHT22;10781;50.928;4.440;2023-06-14T02:30:20;21.10;80.20
21246;DHT22;10781;50.928;4.440;2023-06-14T02:32:46;21.00;80.00
21246;DHT22;10781;50.928;4.440;2023-06-14T02:35:14;20.90;81.30
21246;DHT22;10781;50.928;4.440;2023-06-14T02:37:40;20.90;81.70
21246;DHT22;10781;50.928;4.440;2023-06-14T02:40:06;20.90;82.80
21246;DHT22;10781;50.928;4.440;2023-06-14T02:42:33;20.80;83.70
21246;DHT22;10781;50.928;4.440;2023-06-14T02:44:58;20.70;83.40
21246;DHT22;10781;50.928;4.440;2023-06-14T02:47:24;20.60;84.20
21246;DHT22;10781;50.928;4.440;2023-06-14T02:49:50;20.50;85.60
21246;DHT22;10781;50.928;4.440;2023-06-14T02:52:15;20.50;85.80
21246;DHT22;10781;50.928;4.440;2023-06-14T02:54:41;20.60;87.30
21246;DHT22;10781;50.928;4.440;2023-06-14T02:57:07;20.70;86.30
21246;DHT22;10781;50.928;4.440;2023-06-14T02:59:34;20.60;87.70
21246;DHT22;10781;50.928;4.440;2023-06-14T03:02:00;20.50;87.50
21246;DHT22;10781;50.928;4.440;2023-06-14T03:04:26;20.50;88.10
21246;DHT22;10781;50.928;4.440;2023-06-14T03:06:52;20.50;88.20
21246;DHT22;10781;50.928;4.440;2023-06-14T03:09:19;20.60;88.90
21246;DHT22;10781;50.928;4.440;2023-06-14T03:11:45;20.40;89.20
21246;DHT22;10781;50.928;4.440;2023-06-14T03:14:10;20.30;90.00
21246;DHT22;10781;50.928;4.440;2023-06-14T03:16:37;20.20;90.30
21246;DHT22;10781;50.928;4.440;2023-06-14T03:19:02;20.20;90.60
21246;DHT22;10781;50.928;4.440;2023-06-14T03:21:28;20.30;90.30
21246;DHT22;10781;50.928;4.440;2023-06-14T03:23:54;20.10;91.00
21246;DHT22;10781;50.928;4.440;2023-06-14T03:26:20;20.20;91.30
21246;DHT22;10781;50.928;4.440;2023-06-14T03:28:46;20.30;91.20
21246;DHT22;10781;50.928;4.440;2023-06-14T03:31:12;20.10;91.80
21246;DHT22;10781;50.928;4.440;2023-06-14T03:33:39;19.90;92.30
21246;DHT22;10781;50.928;4.440;2023-06-14T03:36:05;20.10;93.00
21246;DHT22;10781;50.928;4.440;2023-06-14T03:38:31;20.10;92.30
21246;DHT22;10781;50.928;4.440;2023-06-14T03:40:56;20.10;92.40
21246;DHT22;10781;50.928;4.440;2023-06-14T03:43:22;20.00;92.90
21246;DHT22;10781;50.928;4.440;2023-06-14T03:45:48;20.00;93.20
21246;DHT22;10781;50.928;4.440;2023-06-14T03:48:14;20.00;93.50
21246;DHT22;10781;50.928;4.440;2023-06-14T03:50:40;20.10;93.80
21246;DHT22;10781;50.928;4.440;2023-06-14T03:53:06;20.00;93.60
21246;DHT22;10781;50.928;4.440;2023-06-14T03:55:32;20.00;93.70
21246;DHT22;10781;50.928;4.440;2023-06-14T03:57:58;20.00;93.80
21246;DHT22;10781;50.928;4.440;2023-06-14T04:00:24;19.90;94.50
21246;DHT22;10781;50.928;4.440;2023-06-14T04:02:49;19.90;94.80
21246;DHT22;10781;50.928;4.440;2023-06-14T04:05:15;19.90;95.10
21246;DHT22;10781;50.928;4.440;2023-06-14T04:07:42;19.90;95.10
21246;DHT22;10781;50.928;4.440;2023-06-14T04:10:13;19.90;96.00
21246;DHT22;10781;50.928;4.440;2023-06-14T04:12:39;20.00;95.90
21246;DHT22;10781;50.928;4.440;2023-06-14T04:15:05;19.90;96.20
21246;DHT22;10781;50.928;4.440;2023-06-14T04:17:32;20.00;96.40
21246;DHT22;10781;50.928;4.440;2023-06-14T04:20:01;19.90;96.60
21246;DHT22;10781;50.928;4.440;2023-06-14T04:22:27;19.80;97.20
21246;DHT22;10781;50.928;4.440;2023-06-14T04:24:54;19.80;97.20
21246;DHT22;10781;50.928;4.440;2023-06-14T04:27:25;19.70;98.30
21246;DHT22;10781;50.928;4.440;2023-06-14T04:29:55;19.70;98.60
21246;DHT22;10781;50.928;4.440;2023-06-14T04:32:25;19.70;98.20
21246;DHT22;10781;50.928;4.440;2023-06-14T04:34:57;19.70;98.20
21246;DHT22;10781;50.928;4.440;2023-06-14T04:37:24;19.60;98.60
21246;DHT22;10781;50.928;4.440;2023-06-14T04:39:54;19.60;99.20
21246;DHT22;10781;50.928;4.440;2023-06-14T04:42:24;19.90;99.70
21246;DHT22;10781;50.928;4.440;2023-06-14T04:44:57;20.00;99.40
21246;DHT22;10781;50.928;4.440;2023-06-14T04:47:23;20.20;98.80
21246;DHT22;10781;50.928;4.440;2023-06-14T04:49:58;20.20;98.90
21246;DHT22;10781;50.928;4.440;2023-06-14T04:52:25;20.50;98.30
21246;DHT22;10781;50.928;4.440;2023-06-14T04:54:52;20.50;97.80
21246;DHT22;10781;50.928;4.440;2023-06-14T04:57:19;20.30;97.50
21246;DHT22;10781;50.928;4.440;2023-06-14T04:59:47;20.20;97.70
21246;DHT22;10781;50.928;4.440;2023-06-14T05:02:13;20.20;98.20
21246;DHT22;10781;50.928;4.440;2023-06-14T05:04:39;20.10;97.90
21246;DHT22;10781;50.928;4.440;2023-06-14T05:07:08;20.10;98.50
21246;DHT22;10781;50.928;4.440;2023-06-14T05:09:35;20.20;98.00
21246;DHT22;10781;50.928;4.440;2023-06-14T05:12:01;20.20;98.00
21246;DHT22;10781;50.928;4.440;2023-06-14T05:14:27;20.30;97.10
21246;DHT22;10781;50.928;4.440;2023-06-14T05:16:52;20.30;96.60
21246;DHT22;10781;50.928;4.440;2023-06-14T05:19:19;20.20;98.00
21246;DHT22;10781;50.928;4.440;2023-06-14T05:21:46;20.30;97.50
21246;DHT22;10781;50.928;4.440;2023-06-14T05:24:13;20.20;97.80
21246;DHT22;10781;50.928;4.440;2023-06-14T05:26:39;20.10;96.70
21246;DHT22;10781;50.928;4.440;2023-06-14T05:29:05;20.10;97.30
21246;DHT22;10781;50.928;4.440;2023-06-14T05:31:31;20.20;97.40
21246;DHT22;10781;50.928;4.440;2023-06-14T05:33:56;20.20;97.00
21246;DHT22;10781;50.928;4.440;2023-06-14T05:36:22;20.10;97.60
21246;DHT22;10781;50.928;4.440;2023-06-14T05:38:48;20.30;97.60
21246;DHT22;10781;50.928;4.440;2023-06-14T05:41:13;20.30;97.10
21246;DHT22;10781;50.928;4.440;2023-06-14T05:43:39;20.30;97.50
21246;DHT22;10781;50.928;4.440;2023-06-14T05:46:05;20.50;97.10
21246;DHT22;10781;50.928;4.440;2023-06-14T05:48:30;20.50;96.90
21246;DHT22;10781;50.928;4.440;2023-06-14T05:50:56;20.50;96.70
21246;DHT22;10781;50.928;4.440;2023-06-14T05:53:22;20.40;97.30
21246;DHT22;10781;50.928;4.440;2023-06-14T05:55:50;20.50;96.80
21246;DHT22;10781;50.928;4.440;2023-06-14T05:58:17;20.60;96.70
21246;DHT22;10781;50.928;4.440;2023-06-14T06:00:42;20.70;96.20
21246;DHT22;10781;50.928;4.440;2023-06-14T06:03:08;20.60;96.50
21246;DHT22;10781;50.928;4.440;2023-06-14T06:05:34;20.60;96.60
21246;DHT22;10781;50.928;4.440;2023-06-14T06:08:00;20.60;96.90
21246;DHT22;10781;50.928;4.440;2023-06-14T06:10:26;20.60;96.90
21246;DHT22;10781;50.928;4.440;2023-06-14T06:12:51;20.60;97.20
21246;DHT22;10781;50.928;4.440;2023-06-14T06:15:17;20.70;97.00
21246;DHT22;10781;50.928;4.440;2023-06-14T06:17:44;20.60;96.80
21246;DHT22;10781;50.928;4.440;2023-06-14T06:20:10;20.80;97.10
21246;DHT22;10781;50.928;4.440;2023-06-14T06:22:37;21.00;96.80
21246;DHT22;10781;50.928;4.440;2023-06-14T06:25:03;21.20;95.70
21246;DHT22;10781;50.928;4.440;2023-06-14T06:27:29;21.50;95.20
21246;DHT22;10781;50.928;4.440;2023-06-14T06:29:55;21.50;95.30
21246;DHT22;10781;50.928;4.440;2023-06-14T06:32:21;21.60;95.10
21246;DHT22;10781;50.928;4.440;2023-06-14T06:34:47;21.70;95.20
21246;DHT22;10781;50.928;4.440;2023-06-14T06:37:16;21.80;94.70
21246;DHT22;10781;50.928;4.440;2023-06-14T06:39:41;21.70;94.50
21246;DHT22;10781;50.928;4.440;2023-06-14T06:42:08;21.80;94.80
21246;DHT22;10781;50.928;4.440;2023-06-14T06:44:33;21.90;94.80
21246;DHT22;10781;50.928;4.440;2023-06-14T06:46:59;22.00;94.80
21246;DHT22;10781;50.928;4.440;2023-06-14T06:49:25;22.20;94.60
21246;DHT22;10781;50.928;4.440;2023-06-14T06:52:04;22.40;94.70
21246;DHT22;10781;50.928;4.440;2023-06-14T06:54:31;22.60;93.50
21246;DHT22;10781;50.928;4.440;2023-06-14T06:56:56;22.70;93.60
21246;DHT22;10781;50.928;4.440;2023-06-14T06:59:22;22.70;93.70
21246;DHT22;10781;50.928;4.440;2023-06-14T07:01:48;22.80;93.10
21246;DHT22;10781;50.928;4.440;2023-06-14T07:04:14;22.80;93.10
21246;DHT22;10781;50.928;4.440;2023-06-14T07:06:40;23.00;92.20
21246;DHT22;10781;50.928;4.440;2023-06-14T07:09:05;23.00;92.40
21246;DHT22;10781;50.928;4.440;2023-06-14T07:11:38;23.20;92.30
21246;DHT22;10781;50.928;4.440;2023-06-14T07:14:03;23.30;91.80
21246;DHT22;10781;50.928;4.440;2023-06-14T07:16:29;23.50;91.90
21246;DHT22;10781;50.928;4.440;2023-06-14T07:18:55;23.50;90.80
21246;DHT22;10781;50.928;4.440;2023-06-14T07:21:21;23.60;90.80
21246;DHT22;10781;50.928;4.440;2023-06-14T07:23:47;23.90;89.40
21246;DHT22;10781;50.928;4.440;2023-06-14T07:26:13;24.10;88.00
21246;DHT22;10781;50.928;4.440;2023-06-14T07:28:38;24.20;85.90
21246;DHT22;10781;50.928;4.440;2023-06-14T07:31:04;24.30;87.10
21246;DHT22;10781;50.928;4.440;2023-06-14T07:33:29;24.90;84.00
21246;DHT22;10781;50.928;4.440;2023-06-14T07:35:55;26.40;80.20
21246;DHT22;10781;50.928;4.440;2023-06-14T07:38:21;28.60;73.40
21246;DHT22;10781;50.928;4.440;2023-06-14T07:40:47;30.50;67.30
21246;DHT22;10781;50.928;4.440;2023-06-14T07:43:12;31.50;63.60
21246;DHT22;10781;50.928;4.440;2023-06-14T07:45:38;32.80;59.70
21246;DHT22;10781;50.928;4.440;2023-06-14T07:48:04;33.60;57.20
21246;DHT22;10781;50.928;4.440;2023-06-14T07:50:29;33.20;55.00
21246;DHT22;10781;50.928;4.440;2023-06-14T07:52:55;34.10;54.20
21246;DHT22;10781;50.928;4.440;2023-06-14T07:55:21;34.10;53.70
21246;DHT22;10781;50.928;4.440;2023-06-14T07:57:47;34.20;52.80
21246;DHT22;10781;50.928;4.440;2023-06-14T08:00:13;34.00;52.80
21246;DHT22;10781;50.928;4.440;2023-06-14T08:02:44;34.30;52.50
21246;DHT22;10781;50.928;4.440;2023-06-14T08:05:13;35.90;49.90
21246;DHT22;10781;50.928;4.440;2023-06-14T08:07:39;36.60;49.70
21246;DHT22;10781;50.928;4.440;2023-06-14T08:10:06;36.90;47.20
21246;DHT22;10781;50.928;4.440;2023-06-14T08:12:32;35.90;47.00
21246;DHT22;10781;50.928;4.440;2023-06-14T08:14:58;35.60;47.30
21246;DHT22;10781;50.928;4.440;2023-06-14T08:17:24;35.70;47.00
21246;DHT22;10781;50.928;4.440;2023-06-14T08:19:50;35.90;46.40
21246;DHT22;10781;50.928;4.440;2023-06-14T08:22:16;37.00;46.70
21246;DHT22;10781;50.928;4.440;2023-06-14T08:24:43;36.80;45.80
21246;DHT22;10781;50.928;4.440;2023-06-14T08:27:09;37.10;45.60
21246;DHT22;10781;50.928;4.440;2023-06-14T08:29:35;36.20;45.90
21246;DHT22;10781;50.928;4.440;2023-06-14T08:32:01;36.40;45.50
21246;DHT22;10781;50.928;4.440;2023-06-14T08:34:27;36.10;45.10
21246;DHT22;10781;50.928;4.440;2023-06-14T08:36:53;35.50;45.60
21246;DHT22;10781;50.928;4.440;2023-06-14T08:39:18;35.00;47.20
21246;DHT22;10781;50.928;4.440;2023-06-14T08:41:46;35.20;47.40
21246;DHT22;10781;50.928;4.440;2023-06-14T08:44:17;35.60;46.90
21246;DHT22;10781;50.928;4.440;2023-06-14T08:46:43;35.80;47.50
21246;DHT22;10781;50.928;4.440;2023-06-14T08:49:11;34.90;47.60
21246;DHT22;10781;50.928;4.440;2023-06-14T08:51:38;33.90;48.30
21246;DHT22;10781;50.928;4.440;2023-06-14T08:54:06;33.50;47.80
21246;DHT22;10781;50.928;4.440;2023-06-14T08:56:32;33.70;47.80
21246;DHT22;10781;50.928;4.440;2023-06-14T08:59:00;33.80;48.40
21246;DHT22;10781;50.928;4.440;2023-06-14T09:01:37;35.10;47.40
21246;DHT22;10781;50.928;4.440;2023-06-14T09:04:04;34.20;46.90
21246;DHT22;10781;50.928;4.440;2023-06-14T09:06:31;35.00;46.90
21246;DHT22;10781;50.928;4.440;2023-06-14T09:08:57;34.80;46.00
21246;DHT22;10781;50.928;4.440;2023-06-14T09:11:23;34.10;47.50
21246;DHT22;10781;50.928;4.440;2023-06-14T09:13:50;35.70;46.40
21246;DHT22;10781;50.928;4.440;2023-06-14T09:16:16;35.60;44.90
21246;DHT22;10781;50.928;4.440;2023-06-14T09:18:46;34.60;46.10
21246;DHT22;10781;50.928;4.440;2023-06-14T09:21:16;35.00;46.20
21246;DHT22;10781;50.928;4.440;2023-06-14T09:23:46;34.00;47.20
21246;DHT22;10781;50.928;4.440;2023-06-14T09:26:15;34.10;46.90
21246;DHT22;10781;50.928;4.440;2023-06-14T09:28:45;34.00;47.50
21246;DHT22;10781;50.928;4.440;2023-06-14T09:31:15;34.40;46.90
21246;DHT22;10781;50.928;4.440;2023-06-14T09:33:51;35.90;44.70
21246;DHT22;10781;50.928;4.440;2023-06-14T09:36:24;36.20;45.10
21246;DHT22;10781;50.928;4.440;2023-06-14T09:38:58;36.50;44.30
21246;DHT22;10781;50.928;4.440;2023-06-14T09:41:37;36.20;45.00
21246;DHT22;10781;50.928;4.440;2023-06-14T09:44:05;36.00;42.40
21246;DHT22;10781;50.928;4.440;2023-06-14T09:46:31;36.10;43.70
21246;DHT22;10781;50.928;4.440;2023-06-14T09:48:57;37.40;43.10
21246;DHT22;10781;50.928;4.440;2023-06-14T09:51:24;38.50;40.80
21246;DHT22;10781;50.928;4.440;2023-06-14T09:53:50;38.40;40.20
21246;DHT22;10781;50.928;4.440;2023-06-14T09:56:28;37.20;40.70
21246;DHT22;10781;50.928;4.440;2023-06-14T09:58:59;37.60;40.40
21246;DHT22;10781;50.928;4.440;2023-06-14T10:01:26;37.20;41.30
21246;DHT22;10781;50.928;4.440;2023-06-14T10:04:05;36.80;41.30
21246;DHT22;10781;50.928;4.440;2023-06-14T10:06:34;37.70;40.10
21246;DHT22;10781;50.928;4.440;2023-06-14T10:09:04;37.40;38.90
21246;DHT22;10781;50.928;4.440;2023-06-14T10:11:31;37.60;39.00
21246;DHT22;10781;50.928;4.440;2023-06-14T10:13:58;37.80;38.70
21246;DHT22;10781;50.928;4.440;2023-06-14T10:16:32;37.80;38.40
21246;DHT22;10781;50.928;4.440;2023-06-14T10:22:09;37.10;38.00
21246;DHT22;10781;50.928;4.440;2023-06-14T10:24:43;37.40;37.30
21246;DHT22;10781;50.928;4.440;2023-06-14T10:27:10;37.00;37.40
21246;DHT22;10781;50.928;4.440;2023-06-14T10:32:20;37.70;38.10
21246;DHT22;10781;50.928;4.440;2023-06-14T10:34:56;37.60;38.00
21246;DHT22;10781;50.928;4.440;2023-06-14T10:37:22;38.50;35.60
21246;DHT22;10781;50.928;4.440;2023-06-14T10:39:50;39.00;35.50
21246;DHT22;10781;50.928;4.440;2023-06-14T10:42:16;38.60;35.60
21246;DHT22;10781;50.928;4.440;2023-06-14T10:52:33;38.80;33.70
21246;DHT22;10781;50.928;4.440;2023-06-14T10:55:20;38.80;34.90
21246;DHT22;10781;50.928;4.440;2023-06-14T10:57:52;38.80;35.50
21246;DHT22;10781;50.928;4.440;2023-06-14T11:00:25;38.70;34.30
21246;DHT22;10781;50.928;4.440;2023-06-14T11:05:52;41.10;32.70
21246;DHT22;10781;50.928;4.440;2023-06-14T11:10:59;40.50;31.90
21246;DHT22;10781;50.928;4.440;2023-06-14T11:13:26;39.10;32.40
21246;DHT22;10781;50.928;4.440;2023-06-14T11:15:52;38.70;34.20
21246;DHT22;10781;50.928;4.440;2023-06-14T11:18:23;39.40;35.60
21246;DHT22;10781;50.928;4.440;2023-06-14T11:20:53;40.50;33.40
21246;DHT22;10781;50.928;4.440;2023-06-14T11:23:18;39.80;31.70
21246;DHT22;10781;50.928;4.440;2023-06-14T11:25:50;39.60;32.20
21246;DHT22;10781;50.928;4.440;2023-06-14T11:28:16;40.10;32.60
21246;DHT22;10781;50.928;4.440;2023-06-14T11:30:42;41.30;32.00
21246;DHT22;10781;50.928;4.440;2023-06-14T11:33:09;41.30;31.60
21246;DHT22;10781;50.928;4.440;2023-06-14T11:35:36;41.60;32.70
21246;DHT22;10781;50.928;4.440;2023-06-14T11:38:02;42.50;31.30
21246;DHT22;10781;50.928;4.440;2023-06-14T11:40:28;41.30;31.20
21246;DHT22;10781;50.928;4.440;2023-06-14T11:43:01;40.00;31.80
21246;DHT22;10781;50.928;4.440;2023-06-14T11:45:30;39.10;32.80
21246;DHT22;10781;50.928;4.440;2023-06-14T11:47:58;38.50;33.30
21246;DHT22;10781;50.928;4.440;2023-06-14T11:50:25;38.90;32.80
21246;DHT22;10781;50.928;4.440;2023-06-14T11:52:55;39.00;33.30
21246;DHT22;10781;50.928;4.440;2023-06-14T11:55:22;40.40;32.40
21246;DHT22;10781;50.928;4.440;2023-06-14T11:57:54;38.70;33.00
21246;DHT22;10781;50.928;4.440;2023-06-14T12:00:24;39.10;33.60
21246;DHT22;10781;50.928;4.440;2023-06-14T12:02:54;38.50;32.00
21246;DHT22;10781;50.928;4.440;2023-06-14T12:05:23;38.30;33.10
21246;DHT22;10781;50.928;4.440;2023-06-14T12:07:50;38.40;33.00
21246;DHT22;10781;50.928;4.440;2023-06-14T12:10:18;38.60;32.00
21246;DHT22;10781;50.928;4.440;2023-06-14T12:12:44;39.30;33.80
21246;DHT22;10781;50.928;4.440;2023-06-14T12:15:10;40.00;31.70
21246;DHT22;10781;50.928;4.440;2023-06-14T12:17:39;39.80;31.40
21246;DHT22;10781;50.928;4.440;2023-06-14T12:20:09;39.50;31.80
21246;DHT22;10781;50.928;4.440;2023-06-14T12:22:37;39.90;31.20
21246;DHT22;10781;50.928;4.440;2023-06-14T12:25:04;39.80;31.70
21246;DHT22;10781;50.928;4.440;2023-06-14T12:27:30;39.60;32.40
21246;DHT22;10781;50.928;4.440;2023-06-14T12:30:03;38.70;33.00
21246;DHT22;10781;50.928;4.440;2023-06-14T12:32:30;40.00;32.50
21246;DHT22;10781;50.928;4.440;2023-06-14T12:34:55;40.70;31.90
21246;DHT22;10781;50.928;4.440;2023-06-14T12:37:21;42.40;31.70
21246;DHT22;10781;50.928;4.440;2023-06-14T12:39:47;42.10;30.40
21246;DHT22;10781;50.928;4.440;2023-06-14T12:42:13;40.60;31.20
21246;DHT22;10781;50.928;4.440;2023-06-14T12:44:39;39.90;31.60
21246;DHT22;10781;50.928;4.440;2023-06-14T12:47:07;40.50;31.60
21246;DHT22;10781;50.928;4.440;2023-06-14T12:49:33;39.60;30.60
21246;DHT22;10781;50.928;4.440;2023-06-14T12:51:59;40.00;33.00
21246;DHT22;10781;50.928;4.440;2023-06-14T12:54:24;41.00;31.90
21246;DHT22;10781;50.928;4.440;2023-06-14T12:56:53;41.60;30.70
21246;DHT22;10781;50.928;4.440;2023-06-14T12:59:20;41.60;30.50
21246;DHT22;10781;50.928;4.440;2023-06-14T13:01:46;40.50;30.20
21246;DHT22;10781;50.928;4.440;2023-06-14T13:04:15;38.70;31.10
21246;DHT22;10781;50.928;4.440;2023-06-14T13:06:40;38.90;31.90
21246;DHT22;10781;50.928;4.440;2023-06-14T13:09:06;38.90;31.30
21246;DHT22;10781;50.928;4.440;2023-06-14T13:11:33;38.60;31.50
21246;DHT22;10781;50.928;4.440;2023-06-14T13:13:59;38.90;31.90
21246;DHT22;10781;50.928;4.440;2023-06-14T13:16:24;40.20;31.00
21246;DHT22;10781;50.928;4.440;2023-06-14T13:18:50;40.20;29.90
21246;DHT22;10781;50.928;4.440;2023-06-14T13:21:16;39.30;29.80
21246;DHT22;10781;50.928;4.440;2023-06-14T13:23:41;40.40;30.00
21246;DHT22;10781;50.928;4.440;2023-06-14T13:26:07;39.10;30.20
21246;DHT22;10781;50.928;4.440;2023-06-14T13:28:32;39.20;30.70
21246;DHT22;10781;50.928;4.440;2023-06-14T13:31:00;38.70;31.00
21246;DHT22;10781;50.928;4.440;2023-06-14T13:33:26;38.60;31.30
21246;DHT22;10781;50.928;4.440;2023-06-14T13:35:52;39.00;31.90
21246;DHT22;10781;50.928;4.440;2023-06-14T13:38:18;39.70;30.50
21246;DHT22;10781;50.928;4.440;2023-06-14T13:40:44;40.10;29.90
21246;DHT22;10781;50.928;4.440;2023-06-14T13:43:10;39.80;29.80
21246;DHT22;10781;50.928;4.440;2023-06-14T13:45:35;38.90;30.80
21246;DHT22;10781;50.928;4.440;2023-06-14T13:48:01;38.80;31.10
21246;DHT22;10781;50.928;4.440;2023-06-14T13:50:27;38.90;30.30
21246;DHT22;10781;50.928;4.440;2023-06-14T13:52:53;38.40;31.00
21246;DHT22;10781;50.928;4.440;2023-06-14T13:55:18;39.70;31.60
21246;DHT22;10781;50.928;4.440;2023-06-14T13:57:44;41.80;30.20
21246;DHT22;10781;50.928;4.440;2023-06-14T14:00:11;41.60;28.60
21246;DHT22;10781;50.928;4.440;2023-06-14T14:02:37;40.20;28.80
21246;DHT22;10781;50.928;4.440;2023-06-14T14:05:03;38.80;30.00
21246;DHT22;10781;50.928;4.440;2023-06-14T14:07:29;38.40;30.80
21246;DHT22;10781;50.928;4.440;2023-06-14T14:09:55;39.50;29.70
21246;DHT22;10781;50.928;4.440;2023-06-14T14:12:23;40.30;29.50
21246;DHT22;10781;50.928;4.440;2023-06-14T14:14:48;39.60;28.50
21246;DHT22;10781;50.928;4.440;2023-06-14T14:17:15;38.00;29.60
21246;DHT22;10781;50.928;4.440;2023-06-14T14:19:41;37.20;30.00
21246;DHT22;10781;50.928;4.440;2023-06-14T14:22:07;38.00;30.30
21246;DHT22;10781;50.928;4.440;2023-06-14T14:24:32;37.80;29.90
21246;DHT22;10781;50.928;4.440;2023-06-14T14:26:58;38.20;30.00
21246;DHT22;10781;50.928;4.440;2023-06-14T14:29:25;37.80;29.90
21246;DHT22;10781;50.928;4.440;2023-06-14T14:31:54;38.40;29.80
21246;DHT22;10781;50.928;4.440;2023-06-14T14:34:21;39.00;29.30
21246;DHT22;10781;50.928;4.440;2023-06-14T14:36:47;39.90;29.10
21246;DHT22;10781;50.928;4.440;2023-06-14T14:39:12;37.60;29.80
21246;DHT22;10781;50.928;4.440;2023-06-14T14:41:38;37.20;30.00
21246;DHT22;10781;50.928;4.440;2023-06-14T14:44:05;37.70;29.80
21246;DHT22;10781;50.928;4.440;2023-06-14T14:46:31;37.20;29.80
21246;DHT22;10781;50.928;4.440;2023-06-14T14:48:58;37.10;30.10
21246;DHT22;10781;50.928;4.440;2023-06-14T14:51:25;37.60;31.20
21246;DHT22;10781;50.928;4.440;2023-06-14T14:53:50;37.50;30.40
21246;DHT22;10781;50.928;4.440;2023-06-14T14:56:16;37.00;30.50
21246;DHT22;10781;50.928;4.440;2023-06-14T14:58:42;37.00;30.50
21246;DHT22;10781;50.928;4.440;2023-06-14T15:01:08;37.50;31.80
21246;DHT22;10781;50.928;4.440;2023-06-14T15:03:33;37.50;30.00
21246;DHT22;10781;50.928;4.440;2023-06-14T15:05:59;37.40;30.20
21246;DHT22;10781;50.928;4.440;2023-06-14T15:08:25;37.40;29.80
21246;DHT22;10781;50.928;4.440;2023-06-14T15:10:50;37.20;31.00
21246;DHT22;10781;50.928;4.440;2023-06-14T15:13:16;36.40;31.80
21246;DHT22;10781;50.928;4.440;2023-06-14T15:15:42;36.30;31.90
21246;DHT22;10781;50.928;4.440;2023-06-14T15:18:07;36.50;32.00
21246;DHT22;10781;50.928;4.440;2023-06-14T15:20:35;35.90;31.30
21246;DHT22;10781;50.928;4.440;2023-06-14T15:23:00;36.20;32.30
21246;DHT22;10781;50.928;4.440;2023-06-14T15:25:27;35.90;32.30
21246;DHT22;10781;50.928;4.440;2023-06-14T15:27:53;35.20;33.40
21246;DHT22;10781;50.928;4.440;2023-06-14T15:30:19;35.50;33.30
21246;DHT22;10781;50.928;4.440;2023-06-14T15:32:45;35.60;32.70
21246;DHT22;10781;50.928;4.440;2023-06-14T15:35:10;36.00;33.30
21246;DHT22;10781;50.928;4.440;2023-06-14T15:37:37;36.40;32.60
21246;DHT22;10781;50.928;4.440;2023-06-14T15:40:04;36.20;32.00
21246;DHT22;10781;50.928;4.440;2023-06-14T15:42:30;37.20;33.00
21246;DHT22;10781;50.928;4.440;2023-06-14T15:44:55;35.90;32.40
21246;DHT22;10781;50.928;4.440;2023-06-14T15:47:21;35.80;32.20